Time;durP1;ratioP1;P1;durP2;ratioP2;P2;SDS_P1;SDS_P2;PMS_P1;PMS_P2;Temp;Humidity;BMP_temperature;BMP_pressure;BME280_temperature;BME280_humidity;BME280_pressure;Samples;Min_cycle;Max_cycle;Signal;HPM_P1;HPM_P2
2022/06/22 00:01:19;;;;;;;7.63;7.03;;;;;;;24.30;64.38;94684.31;5026501;28;20223;-66
2022/06/22 00:03:50;;;;;;;8.68;7.88;;;;;;;24.38;63.47;94681.81;5023989;28;20202;-67
2022/06/22 00:06:27;;;;;;;9.48;7.85;;;;;;;24.43;63.71;94681.41;5027435;28;20210;-67
2022/06/22 00:08:54;;;;;;;11.57;10.48;;;;;;;24.37;63.41;94685.38;5021591;28;20260;-66
2022/06/22 00:11:21;;;;;;;18.58;14.68;;;;;;;24.33;63.17;94683.22;5022546;28;20648;-66
2022/06/22 00:13:53;;;;;;;14.73;13.35;;;;;;;24.35;63.73;94691.69;5022455;28;20203;-66
2022/06/22 00:16:24;;;;;;;21.45;15.93;;;;;;;24.31;63.89;94695.50;5023264;28;20219;-66
2022/06/22 00:18:52;;;;;;;14.80;12.10;;;;;;;24.33;63.35;94702.22;5023025;28;20207;-66
2022/06/22 00:21:21;;;;;;;10.95;8.10;;;;;;;24.25;63.55;94702.09;5022263;28;20231;-66
2022/06/22 00:23:51;;;;;;;10.65;8.57;;;;;;;24.28;63.79;94691.44;5022766;28;20684;-66
2022/06/22 00:26:33;;;;;;;9.27;8.40;;;;;;;24.33;63.66;94683.22;5023294;28;20220;-67
2022/06/22 00:29:17;;;;;;;14.13;10.25;;;;;;;24.26;64.04;94693.34;5021953;28;20657;-67
2022/06/22 00:31:58;;;;;;;11.70;8.52;;;;;;;24.31;63.67;94695.50;5020754;28;20292;-66
2022/06/22 00:34:27;;;;;;;10.75;8.98;;;;;;;24.21;64.10;94695.53;5022648;28;20905;-65
2022/06/22 00:36:59;;;;;;;9.40;8.52;;;;;;;24.18;64.19;94690.63;5029496;28;20218;-67
2022/06/22 00:39:32;;;;;;;13.38;9.10;;;;;;;24.09;64.53;94684.50;5028650;28;20203;-67
2022/06/22 00:42:02;;;;;;;10.30;9.05;;;;;;;24.11;64.27;94679.16;5027110;28;20219;-67
2022/06/22 00:44:33;;;;;;;9.15;8.25;;;;;;;24.22;63.88;94686.78;5031245;28;20280;-67
2022/06/22 00:47:03;;;;;;;10.88;8.75;;;;;;;24.29;63.84;94698.25;5028810;28;20211;-66
2022/06/22 00:49:32;;;;;;;11.32;8.70;;;;;;;24.32;63.70;94692.78;5028562;28;20852;-65
2022/06/22 00:52:02;;;;;;;9.60;8.50;;;;;;;24.12;64.41;94698.97;5020644;28;20256;-67
2022/06/22 00:54:31;;;;;;;10.95;8.30;;;;;;;24.20;64.14;94701.69;5029883;28;20203;-66
2022/06/22 00:57:04;;;;;;;10.25;8.13;;;;;;;24.07;64.99;94696.81;5030921;28;20278;-65
2022/06/22 00:59:39;;;;;;;8.93;8.10;;;;;;;23.93;65.26;94699.06;5030874;28;20211;-66
2022/06/22 01:02:18;;;;;;;8.80;7.93;;;;;;;23.96;65.44;94703.97;5028644;28;20226;-68
2022/06/22 01:04:51;;;;;;;12.07;8.93;;;;;;;23.98;65.33;94699.47;5029119;28;20707;-69
2022/06/22 01:07:24;;;;;;;10.25;7.57;;;;;;;23.93;65.54;94701.66;5028265;28;20203;-67
2022/06/22 01:09:56;;;;;;;11.20;8.60;;;;;;;23.96;65.62;94702.19;5024925;28;20238;-67
2022/06/22 01:12:26;;;;;;;10.88;8.70;;;;;;;23.89;65.94;94693.31;5028558;28;20215;-66
2022/06/22 01:15:06;;;;;;;9.48;8.40;;;;;;;23.72;66.69;94691.47;5026319;28;20264;-66
2022/06/22 01:17:40;;;;;;;11.45;8.23;;;;;;;23.69;66.47;94695.16;5029996;28;20207;-66
2022/06/22 01:20:13;;;;;;;9.13;8.32;;;;;;;23.78;66.70;94690.06;5028217;28;20208;-66
2022/06/22 01:23:14;;;;;;;21.65;15.38;;;;;;;23.95;65.54;94697.13;5028625;28;20227;-66
2022/06/22 01:25:54;;;;;;;21.10;13.98;;;;;;;24.12;64.95;94686.00;5031138;28;21072;-65
2022/06/22 01:28:24;;;;;;;44.58;31.48;;;;;;;24.15;65.08;94675.34;5028806;28;20234;-66
2022/06/22 01:30:54;;;;;;;30.25;19.83;;;;;;;24.17;65.17;94673.41;5026837;28;20578;-66
2022/06/22 01:33:26;;;;;;;30.30;23.50;;;;;;;24.13;64.68;94677.25;5028724;28;20276;-68
2022/06/22 01:35:56;;;;;;;12.13;10.65;;;;;;;24.12;65.30;94677.41;5027143;28;20207;-67
2022/06/22 01:38:25;;;;;;;13.48;11.07;;;;;;;24.06;65.84;94671.81;5027742;28;20198;-67
2022/06/22 01:41:08;;;;;;;12.77;9.18;;;;;;;24.03;65.60;94671.28;5026842;28;20602;-66
2022/06/22 01:43:41;;;;;;;8.98;8.00;;;;;;;23.94;65.76;94674.75;5026293;28;20203;-66
2022/06/22 01:46:17;;;;;;;23.05;18.83;;;;;;;23.93;66.10;94654.94;5025274;28;20750;-67
2022/06/22 01:48:51;;;;;;;25.45;19.08;;;;;;;23.93;66.28;94660.13;5028345;28;20206;-67
2022/06/22 01:51:23;;;;;;;31.52;23.40;;;;;;;23.86;66.16;94657.28;5029778;28;20206;-66
2022/06/22 01:53:56;;;;;;;24.60;17.15;;;;;;;23.90;66.17;94665.59;5027896;28;20214;-67
2022/06/22 01:56:30;;;;;;;20.80;16.77;;;;;;;23.90;66.07;94671.59;5028977;28;22110;-66
2022/06/22 01:59:05;;;;;;;11.98;9.98;;;;;;;23.85;66.93;94670.38;5028804;28;20687;-66
2022/06/22 02:01:38;;;;;;;12.50;9.23;;;;;;;23.84;66.94;94663.56;5026313;28;20793;-66
2022/06/22 02:04:16;;;;;;;17.30;13.48;;;;;;;23.96;66.27;94662.44;5026931;28;20357;-67
2022/06/22 02:09:48;;;;;;;11.10;8.90;;;;;;;24.09;66.21;94658.53;5028820;28;20754;-67
2022/06/22 02:12:20;;;;;;;10.27;9.25;;;;;;;24.13;66.11;94656.47;5029938;28;20673;-66
2022/06/22 02:14:53;;;;;;;28.75;23.92;;;;;;;23.97;66.66;94651.09;5027328;28;20265;-66
2022/06/22 02:17:26;;;;;;;21.60;14.35;;;;;;;23.93;66.93;94649.75;5029434;28;20262;-66
2022/06/22 02:20:25;;;;;;;19.77;14.45;;;;;;;23.92;67.01;94653.28;5028487;28;20642;-66
2022/06/22 02:23:01;;;;;;;13.15;10.70;;;;;;;23.93;66.55;94649.75;5027751;28;20231;-67
2022/06/22 02:25:31;;;;;;;10.77;9.10;;;;;;;23.87;67.24;94643.34;5027751;28;20688;-66
2022/06/22 02:27:58;;;;;;;10.88;9.90;;;;;;;23.81;67.28;94656.03;5028302;28;20207;-67
2022/06/22 02:30:27;;;;;;;13.20;9.77;;;;;;;23.80;67.32;94650.03;5028579;28;20256;-65
2022/06/22 02:32:54;;;;;;;50.30;37.35;;;;;;;23.78;67.52;94656.31;5027792;28;20211;-65
2022/06/22 02:35:21;;;;;;;15.48;13.88;;;;;;;23.76;67.18;94658.28;5025202;28;20643;-66
2022/06/22 02:37:53;;;;;;;14.82;12.55;;;;;;;23.77;67.49;94654.69;5028179;28;20634;-65
2022/06/22 02:40:23;;;;;;;13.68;12.18;;;;;;;23.84;67.14;94645.38;5029428;28;20222;-66
2022/06/22 02:45:36;;;;;;;10.68;9.45;;;;;;;23.81;67.70;94651.69;5026647;28;20260;-67
2022/06/22 02:48:23;;;;;;;12.32;10.55;;;;;;;23.88;66.92;94654.53;5028726;28;20207;-66
2022/06/22 02:50:58;;;;;;;11.70;9.85;;;;;;;23.97;66.65;94651.91;5027888;28;20771;-66
2022/06/22 02:53:30;;;;;;;12.50;11.20;;;;;;;24.03;66.63;94653.09;5028305;28;20199;-66
2022/06/22 02:55:57;;;;;;;18.50;9.52;;;;;;;24.04;66.01;94658.16;5027017;28;20858;-66
2022/06/22 02:58:26;;;;;;;12.13;10.02;;;;;;;24.06;66.52;94658.81;5027545;28;20256;-65
2022/06/22 03:00:55;;;;;;;12.38;10.25;;;;;;;24.08;65.89;94664.69;5027177;28;20203;-65
2022/06/22 03:03:24;;;;;;;12.05;10.10;;;;;;;24.12;65.81;94664.41;5028538;28;20209;-64
2022/06/22 03:05:54;;;;;;;11.30;10.30;;;;;;;24.10;65.86;94667.16;5026918;28;20316;-65
2022/06/22 03:08:21;;;;;;;10.75;9.73;;;;;;;23.99;66.30;94662.97;5027015;28;20203;-65
2022/06/22 03:10:54;;;;;;;10.60;9.50;;;;;;;23.89;66.95;94661.34;5026836;28;20262;-64
2022/06/22 03:13:38;;;;;;;13.35;10.15;;;;;;;23.89;67.06;94651.78;5028425;28;20296;-64
2022/06/22 03:16:08;;;;;;;11.60;10.40;;;;;;;23.99;66.33;94662.16;5027454;28;20222;-65
2022/06/22 03:18:41;;;;;;;12.70;10.25;;;;;;;24.05;66.47;94664.97;5028773;28;20218;-65
2022/06/22 03:21:13;;;;;;;11.93;9.80;;;;;;;24.10;65.90;94656.78;5028587;28;20199;-65
2022/06/22 03:23:44;;;;;;;11.52;10.18;;;;;;;24.11;66.33;94663.59;5028327;28;20211;-65
2022/06/22 03:26:16;;;;;;;14.93;10.52;;;;;;;24.14;66.55;94662.50;5027912;28;22317;-65
2022/06/22 03:28:48;;;;;;;13.40;9.57;;;;;;;23.95;67.38;94656.44;5028624;28;20198;-65
2022/06/22 03:31:23;;;;;;;18.02;10.18;;;;;;;24.44;65.77;94658.84;5028604;28;20210;-66
2022/06/22 03:33:55;;;;;;;11.32;9.30;;;;;;;24.96;64.07;94659.91;5027584;28;20506;-66
2022/06/22 03:36:26;;;;;;;16.67;9.82;;;;;;;25.46;62.21;94644.56;5027128;28;20269;-66
2022/06/22 03:38:56;;;;;;;13.98;8.80;;;;;;;25.93;60.64;94665.06;5027156;28;20207;-65
2022/06/22 03:41:27;;;;;;;10.52;8.90;;;;;;;26.10;60.38;94653.75;5027273;28;21795;-66
2022/06/22 03:43:59;;;;;;;10.77;9.73;;;;;;;26.02;60.43;94659.72;5026708;28;20797;-65
2022/06/22 03:46:34;;;;;;;11.18;9.40;;;;;;;25.36;62.61;94651.63;5027137;28;20199;-65
2022/06/22 03:49:08;;;;;;;15.88;10.15;;;;;;;24.89;63.82;94651.84;5026240;28;20213;-66
2022/06/22 03:51:42;;;;;;;11.45;10.32;;;;;;;24.54;65.70;94659.59;5025697;28;20266;-65
2022/06/22 03:54:15;;;;;;;11.65;10.02;;;;;;;24.29;67.24;94672.28;5025691;28;20213;-65
2022/06/22 03:56:47;;;;;;;11.43;9.35;;;;;;;24.08;68.18;94672.47;5025981;28;20206;-65
2022/06/22 03:59:13;;;;;;;12.70;10.23;;;;;;;23.97;68.95;94682.25;5026756;28;20238;-65
2022/06/22 04:01:43;;;;;;;14.85;10.32;;;;;;;23.99;68.81;94688.13;5027243;28;20226;-65
2022/06/22 04:04:10;;;;;;;10.77;9.88;;;;;;;24.51;67.22;94684.06;5026120;28;21050;-66
2022/06/22 04:06:44;;;;;;;10.18;9.15;;;;;;;25.23;64.48;94677.22;5028429;28;20195;-65
2022/06/22 04:09:14;;;;;;;10.45;9.38;;;;;;;25.68;62.62;94682.31;5028500;28;20303;-66
2022/06/22 04:11:47;;;;;;;15.43;11.23;;;;;;;26.02;61.91;94674.53;5031874;28;20199;-66
2022/06/22 04:14:19;;;;;;;13.38;9.10;;;;;;;26.16;61.24;94671.34;5031402;28;20631;-66
2022/06/22 04:16:52;;;;;;;10.23;9.23;;;;;;;26.27;60.92;94663.25;5031811;28;20207;-69
2022/06/22 04:19:25;;;;;;;11.20;10.23;;;;;;;26.31;60.75;94667.22;5031356;28;20217;-65
2022/06/22 04:21:56;;;;;;;14.93;10.15;;;;;;;26.15;61.18;94648.88;5031899;28;20214;-66
2022/06/22 04:24:27;;;;;;;11.45;9.30;;;;;;;26.06;61.43;94658.44;5031210;28;20207;-66
2022/06/22 04:27:03;;;;;;;11.48;9.23;;;;;;;26.22;61.12;94660.31;5031587;28;20633;-67
2022/06/22 04:29:39;;;;;;;9.55;8.68;;;;;;;26.29;60.77;94661.31;5031831;28;20199;-66
2022/06/22 04:32:17;;;;;;;18.05;11.98;;;;;;;26.60;60.00;94664.22;5031287;28;20630;-66
2022/06/22 04:34:47;;;;;;;11.55;10.15;;;;;;;26.82;59.20;94668.03;5031347;28;20288;-66
2022/06/22 04:37:23;;;;;;;13.13;9.15;;;;;;;27.28;57.75;94664.03;5031807;28;20272;-66
2022/06/22 04:40:11;;;;;;;12.32;8.55;;;;;;;28.02;55.47;94677.88;5030785;28;20292;-66
2022/06/22 04:42:38;;;;;;;9.57;8.68;;;;;;;28.40;54.21;94671.91;5031707;28;20237;-66
2022/06/22 04:45:06;;;;;;;11.00;8.65;;;;;;;28.92;53.10;94676.59;5031046;28;20348;-65
2022/06/22 04:47:36;;;;;;;12.48;8.85;;;;;;;29.31;51.85;94679.09;5031277;28;20901;-66
2022/06/22 04:50:07;;;;;;;10.50;7.63;;;;;;;29.78;50.56;94670.22;5030767;28;20627;-64
2022/06/22 04:52:37;;;;;;;10.05;8.27;;;;;;;29.68;51.12;94688.84;5031037;28;20210;-64
2022/06/22 04:55:07;;;;;;;10.35;9.30;;;;;;;30.02;50.47;94695.41;5030350;28;20212;-65
2022/06/22 04:57:36;;;;;;;10.90;9.77;;;;;;;30.50;48.75;94682.75;5031457;28;20213;-65
2022/06/22 05:00:07;;;;;;;9.02;8.20;;;;;;;31.06;47.90;94686.50;5030601;28;20207;-66
2022/06/22 05:02:38;;;;;;;9.25;8.35;;;;;;;31.44;46.94;94692.34;5031352;28;20542;-67
2022/06/22 05:05:16;;;;;;;9.35;8.40;;;;;;;31.63;46.36;94691.72;5030891;28;20317;-65
2022/06/22 05:07:48;;;;;;;9.60;8.20;;;;;;;31.68;46.09;94693.78;5030983;28;20210;-67
2022/06/22 05:10:22;;;;;;;13.00;8.32;;;;;;;30.93;47.70;94688.97;5030476;28;20292;-67
2022/06/22 05:12:54;;;;;;;9.55;8.45;;;;;;;30.31;48.97;94692.81;5031154;28;20233;-66
2022/06/22 05:15:24;;;;;;;8.35;7.63;;;;;;;29.67;51.11;94692.44;5029733;28;20211;-65
2022/06/22 05:17:52;;;;;;;10.30;8.73;;;;;;;29.32;51.60;94703.47;5030884;28;20215;-65
2022/06/22 05:20:26;;;;;;;8.85;7.43;;;;;;;29.18;52.51;94701.63;5030250;28;20265;-65
2022/06/22 05:22:58;;;;;;;9.00;7.65;;;;;;;29.71;51.20;94698.94;5030134;28;20668;-65
2022/06/22 05:25:25;;;;;;;8.90;8.13;;;;;;;30.68;48.57;94701.59;5030211;28;20202;-66
2022/06/22 05:28:00;;;;;;;13.88;8.30;;;;;;;31.87;46.20;94692.34;5030517;28;20207;-65
2022/06/22 05:30:33;;;;;;;11.40;8.82;;;;;;;32.59;44.91;94705.97;5029542;28;20207;-66
2022/06/22 05:33:07;;;;;;;9.18;8.25;;;;;;;33.07;43.28;94696.28;5030845;28;20726;-65
2022/06/22 05:35:38;;;;;;;9.30;8.60;;;;;;;33.39;42.86;94700.03;5029985;28;20203;-65
2022/06/22 05:38:07;;;;;;;12.10;8.45;;;;;;;33.85;41.96;94687.94;5030153;28;20600;-65
2022/06/22 05:40:36;;;;;;;11.68;9.77;;;;;;;34.54;40.55;94692.69;5029836;28;20676;-66
2022/06/22 05:43:03;;;;;;;9.48;7.68;;;;;;;34.37;40.65;94697.63;5030454;28;20484;-65
2022/06/22 05:45:37;;;;;;;20.48;12.40;;;;;;;34.82;39.50;94695.88;5029352;28;20211;-67
2022/06/22 05:48:06;;;;;;;10.90;9.52;;;;;;;35.35;38.87;94708.88;5030653;28;20210;-66
2022/06/22 05:50:39;;;;;;;10.77;8.98;;;;;;;34.67;40.01;94714.56;5029430;28;20688;-65
2022/06/22 05:53:13;;;;;;;10.63;9.45;;;;;;;34.99;39.69;94718.16;5030008;28;20633;-65
2022/06/22 05:55:47;;;;;;;14.82;9.38;;;;;;;34.51;40.12;94708.94;5029729;28;20199;-65
2022/06/22 05:58:19;;;;;;;15.48;9.70;;;;;;;35.10;39.57;94706.94;5029791;28;20207;-66
2022/06/22 06:00:49;;;;;;;9.85;8.98;;;;;;;35.46;38.72;94711.63;5029707;28;20676;-65
2022/06/22 06:03:36;;;;;;;17.08;8.95;;;;;;;35.08;39.00;94711.63;5029577;28;20269;-65
2022/06/22 06:06:08;;;;;;;11.73;8.48;;;;;;;33.38;42.30;94708.13;5028964;28;20307;-65
2022/06/22 06:08:43;;;;;;;10.98;9.05;;;;;;;30.87;48.40;94703.66;5029807;28;20210;-65
2022/06/22 06:11:16;;;;;;;9.63;8.65;;;;;;;29.92;51.06;94705.31;5029329;28;20775;-66
2022/06/22 06:13:46;;;;;;;11.18;9.05;;;;;;;29.48;52.52;94708.63;5029823;28;20639;-65
2022/06/22 06:16:19;;;;;;;11.50;8.25;;;;;;;30.15;51.09;94705.28;5029554;28;20211;-65
2022/06/22 06:18:49;;;;;;;17.13;8.57;;;;;;;30.85;49.38;94703.00;5029374;28;20207;-65
2022/06/22 06:21:18;;;;;;;9.23;8.63;;;;;;;31.43;47.91;94707.28;5029318;28;20284;-65
2022/06/22 06:23:50;;;;;;;8.90;8.20;;;;;;;32.05;46.76;94697.94;5029803;28;20223;-64
2022/06/22 06:29:28;;;;;;;7.68;6.95;;;;;;;31.49;48.16;94703.09;5029596;28;20210;-64
2022/06/22 06:32:04;;;;;;;7.95;7.35;;;;;;;31.56;47.87;94708.41;5028595;28;20210;-65
2022/06/22 06:34:38;;;;;;;10.27;8.65;;;;;;;31.71;47.54;94698.66;5029153;28;20721;-65
2022/06/22 06:37:12;;;;;;;9.13;8.43;;;;;;;31.46;48.51;94700.84;5029371;28;20207;-67
2022/06/22 06:39:45;;;;;;;8.52;7.97;;;;;;;31.55;48.09;94699.72;5029149;28;20332;-64
2022/06/22 06:42:24;;;;;;;8.88;8.23;;;;;;;30.86;49.58;94706.44;5028653;28;20199;-64
2022/06/22 06:44:52;;;;;;;7.70;7.05;;;;;;;30.98;49.81;94703.16;5028898;28;20288;-65
2022/06/22 06:47:25;;;;;;;10.02;8.15;;;;;;;31.28;48.42;94690.78;5028855;28;20207;-65
2022/06/22 06:50:00;;;;;;;11.80;7.70;;;;;;;31.16;48.95;94688.84;5029099;28;20212;-64
2022/06/22 06:52:35;;;;;;;9.52;8.45;;;;;;;31.18;49.08;94694.72;5029289;28;20687;-67
2022/06/22 06:55:14;;;;;;;8.48;7.63;;;;;;;31.20;49.13;94690.09;5028453;28;20294;-65
2022/06/22 06:57:49;;;;;;;9.82;8.73;;;;;;;31.02;49.67;94687.84;5028940;28;20207;-65
2022/06/22 07:00:16;;;;;;;9.55;8.35;;;;;;;30.96;49.24;94693.84;5029368;28;20206;-64
2022/06/22 07:02:45;;;;;;;10.55;9.55;;;;;;;30.75;50.31;94690.19;5028693;28;20277;-66
2022/06/22 07:05:19;;;;;;;8.50;7.75;;;;;;;30.77;50.13;94688.19;5028272;28;20227;-65
2022/06/22 07:07:53;;;;;;;12.48;8.38;;;;;;;30.59;50.84;94679.91;5028755;28;20279;-63
2022/06/22 07:10:24;;;;;;;9.35;8.07;;;;;;;30.98;50.51;94682.16;5028263;28;20245;-64
2022/06/22 07:12:56;;;;;;;12.13;7.90;;;;;;;31.22;50.19;94682.84;5028477;28;20703;-65
2022/06/22 07:15:25;;;;;;;10.93;8.23;;;;;;;31.29;50.13;94679.28;5027894;28;20264;-64
2022/06/22 07:17:55;;;;;;;9.25;7.68;;;;;;;31.26;49.45;94678.84;5028430;28;21436;-65
2022/06/22 07:20:28;;;;;;;10.63;9.13;;;;;;;31.29;49.70;94673.22;5028467;28;20207;-63
2022/06/22 07:23:01;;;;;;;10.20;8.73;;;;;;;31.42;50.41;94675.97;5028709;28;20227;-66
2022/06/22 07:25:33;;;;;;;10.60;9.60;;;;;;;31.70;49.60;94676.84;5027663;28;20211;-64
2022/06/22 07:28:05;;;;;;;18.67;11.00;;;;;;;31.76;49.36;94673.47;5028226;28;20364;-64
2022/06/22 07:30:35;;;;;;;10.65;9.73;;;;;;;31.86;48.85;94670.50;5028599;28;20268;-63
2022/06/22 07:33:10;;;;;;;11.60;10.18;;;;;;;31.55;50.12;94670.03;5028419;28;20202;-65
2022/06/22 07:35:44;;;;;;;12.07;10.00;;;;;;;30.96;51.11;94668.41;5027608;28;20206;-64
2022/06/22 07:38:23;;;;;;;11.57;10.48;;;;;;;30.65;52.52;94671.31;5028632;28;20207;-67
2022/06/22 07:43:35;;;;;;;16.20;14.45;;;;;;;30.31;51.26;94658.72;5027162;28;20453;-65
2022/06/22 07:46:02;;;;;;;17.88;16.15;;;;;;;30.09;53.12;94670.13;5027347;28;20753;-64
2022/06/22 07:48:32;;;;;;;20.33;16.77;;;;;;;29.74;52.67;94671.56;5028319;28;20249;-65
2022/06/22 07:51:06;;;;;;;24.30;18.27;;;;;;;29.37;53.95;94674.97;5028624;28;20203;-64
2022/06/22 07:53:39;;;;;;;28.75;19.10;;;;;;;29.43;54.05;94683.00;5027848;28;20750;-64
2022/06/22 07:56:14;;;;;;;19.58;17.55;;;;;;;29.49;53.92;94678.81;5027099;28;21730;-64
2022/06/22 07:58:46;;;;;;;22.58;16.98;;;;;;;29.63;54.06;94678.06;5028242;28;21259;-64
2022/06/22 08:01:16;;;;;;;22.05;17.08;;;;;;;29.99;53.27;94678.25;5028563;28;20668;-65
2022/06/22 08:03:49;;;;;;;18.55;15.55;;;;;;;29.82;53.05;94682.00;5027984;28;20223;-63
2022/06/22 08:06:22;;;;;;;18.15;15.35;;;;;;;29.54;54.21;94681.75;5027014;28;20202;-64
2022/06/22 08:08:55;;;;;;;20.20;16.80;;;;;;;29.20;55.04;94694.41;5027570;28;20218;-63
2022/06/22 08:11:27;;;;;;;18.60;16.00;;;;;;;29.14;56.33;94689.88;5028202;28;20206;-64
2022/06/22 08:13:57;;;;;;;18.38;16.15;;;;;;;29.14;55.48;94690.69;5027738;28;20666;-64
2022/06/22 08:16:30;;;;;;;17.10;14.40;;;;;;;29.35;55.21;94692.66;5027147;28;20668;-64
2022/06/22 08:18:59;;;;;;;19.20;15.77;;;;;;;29.31;54.98;94692.19;5027664;28;20199;-63
2022/06/22 08:21:29;;;;;;;17.77;15.63;;;;;;;29.32;54.84;94690.38;5027702;28;20207;-63
2022/06/22 08:23:58;;;;;;;18.20;14.52;;;;;;;29.17;56.14;94686.91;5027999;28;20668;-64
2022/06/22 08:26:29;;;;;;;22.77;15.40;;;;;;;29.07;56.15;94679.28;5027111;28;20223;-64
2022/06/22 08:28:56;;;;;;;15.77;14.30;;;;;;;29.15;56.50;94681.84;5027857;28;20742;-64
2022/06/22 08:31:26;;;;;;;16.65;14.52;;;;;;;29.23;56.09;94681.78;5027983;28;20218;-64
2022/06/22 08:33:59;;;;;;;17.42;14.43;;;;;;;29.05;55.85;94682.06;5027250;28;20203;-64
2022/06/22 08:36:31;;;;;;;15.40;13.88;;;;;;;28.95;56.00;94688.53;5027037;28;20292;-64
2022/06/22 08:39:03;;;;;;;18.42;14.00;;;;;;;28.75;55.60;94680.25;5027450;28;20696;-63
2022/06/22 08:41:41;;;;;;;17.67;14.90;;;;;;;28.69;56.57;94683.56;5027859;28;20261;-64
2022/06/22 08:44:20;;;;;;;15.60;14.13;;;;;;;28.73;55.54;94684.81;5027777;28;20227;-64
2022/06/22 08:47:05;;;;;;;15.88;14.35;;;;;;;29.07;55.71;94672.25;5026498;28;20211;-64
2022/06/22 08:50:04;;;;;;;15.52;13.50;;;;;;;29.53;54.55;94674.88;5027578;28;20566;-65
2022/06/22 08:52:45;;;;;;;14.30;12.77;;;;;;;29.53;53.54;94679.28;5027935;28;20211;-64
2022/06/22 08:55:28;;;;;;;12.93;11.55;;;;;;;29.35;52.25;94671.72;5027564;28;20711;-64
2022/06/22 08:58:09;;;;;;;12.98;11.52;;;;;;;29.25;53.12;94674.56;5030736;28;20211;-64
2022/06/22 09:00:44;;;;;;;16.08;11.63;;;;;;;29.43;52.74;94667.28;5030548;28;20858;-64
2022/06/22 09:03:59;;;;;;;18.10;11.20;;;;;;;29.53;52.68;94664.41;5030040;28;20233;-64
2022/06/22 09:06:41;;;;;;;12.63;11.30;;;;;;;29.55;51.52;94656.38;5029842;28;20204;-64
2022/06/22 09:09:33;;;;;;;11.70;10.48;;;;;;;29.55;51.49;94654.56;5029438;28;20214;-65
2022/06/22 09:12:11;;;;;;;14.68;11.77;;;;;;;29.50;51.86;94654.28;5030309;28;20364;-63
2022/06/22 09:15:09;;;;;;;13.00;11.68;;;;;;;29.57;51.72;94651.78;5030660;28;20582;-64
2022/06/22 09:18:14;;;;;;;18.85;12.20;;;;;;;29.51;51.75;94652.47;5029956;28;20644;-64
2022/06/22 09:20:55;;;;;;;12.73;10.93;;;;;;;29.53;52.23;94651.31;5030539;28;20620;-65
2022/06/22 09:23:32;;;;;;;12.52;11.25;;;;;;;29.38;52.26;94640.78;5029338;28;20246;-64
2022/06/22 09:26:11;;;;;;;15.88;11.02;;;;;;;29.62;53.14;94626.69;5029643;28;20206;-64
2022/06/22 09:28:46;;;;;;;16.80;11.60;;;;;;;29.71;52.70;94630.84;5029755;28;20626;-64
2022/06/22 09:31:34;;;;;;;14.60;11.45;;;;;;;29.85;51.40;94631.84;5030866;28;20206;-65
2022/06/22 09:34:15;;;;;;;15.38;11.38;;;;;;;29.70;51.76;94618.72;5030195;28;20210;-64
2022/06/22 09:37:00;;;;;;;16.38;11.27;;;;;;;29.66;51.85;94619.28;5029904;28;20681;-65
2022/06/22 09:39:47;;;;;;;13.75;11.50;;;;;;;29.60;51.94;94605.09;5029972;28;20195;-67
2022/06/22 09:42:43;;;;;;;17.25;10.30;;;;;;;29.29;51.62;94614.84;5030674;28;20352;-65
2022/06/22 09:45:30;;;;;;;18.10;9.77;;;;;;;28.67;51.74;94622.78;5030043;28;20227;-64
2022/06/22 09:48:17;;;;;;;11.27;9.77;;;;;;;28.43;52.75;94618.50;5029995;28;20683;-65
2022/06/22 09:51:03;;;;;;;12.95;10.15;;;;;;;28.59;53.37;94620.19;5029919;28;20207;-64
2022/06/22 09:53:55;;;;;;;11.45;9.13;;;;;;;28.76;52.61;94619.09;5030164;28;20211;-64
2022/06/22 09:56:52;;;;;;;19.40;17.30;;;;;;;29.03;52.56;94626.47;5027007;28;20223;-65
2022/06/22 09:59:39;;;;;;;13.02;9.52;;;;;;;29.17;50.84;94627.53;5029858;28;20257;-65
2022/06/22 10:02:22;;;;;;;19.08;11.25;;;;;;;29.23;51.10;94644.31;5029552;28;20252;-65
2022/06/22 10:05:26;;;;;;;18.63;13.32;;;;;;;29.19;51.75;94635.22;5029329;28;21022;-65
2022/06/22 10:08:06;;;;;;;22.83;17.85;;;;;;;28.97;53.11;94642.03;5028415;28;20211;-65
2022/06/22 10:10:48;;;;;;;17.15;14.02;;;;;;;28.72;52.78;94657.03;5028727;28;20238;-65
2022/06/22 10:13:42;;;;;;;18.30;12.60;;;;;;;28.63;53.45;94656.28;5030008;28;20198;-65
2022/06/22 10:16:39;;;;;;;14.23;12.93;;;;;;;28.60;53.90;94655.81;5028799;28;20215;-65
2022/06/22 10:19:23;;;;;;;13.43;12.00;;;;;;;28.57;53.92;94666.59;5026617;28;20210;-65
2022/06/22 10:22:03;;;;;;;19.17;13.40;;;;;;;28.74;52.62;94657.69;5029675;28;20206;-65
2022/06/22 10:25:03;;;;;;;17.58;12.05;;;;;;;28.98;52.44;94662.00;5029152;28;20352;-64
2022/06/22 10:28:07;;;;;;;21.70;12.95;;;;;;;28.85;53.40;94665.19;5026410;28;20276;-64
2022/06/22 10:30:45;;;;;;;22.25;12.63;;;;;;;28.93;53.22;94664.34;5029065;28;20317;-65
2022/06/22 10:33:52;;;;;;;24.30;13.25;;;;;;;28.62;53.51;94664.31;5029627;28;20292;-65
2022/06/22 10:36:45;;;;;;;16.77;13.07;;;;;;;28.60;54.19;94656.63;5022484;28;20302;-65
2022/06/22 10:39:34;;;;;;;18.25;11.80;;;;;;;28.71;54.28;94658.03;5029505;28;20655;-65
2022/06/22 10:45:23;;;;;;;11.90;9.82;;;;;;;29.17;53.54;94647.66;5029068;28;20237;-65
2022/06/22 10:48:18;;;;;;;11.13;10.20;;;;;;;29.40;53.17;94648.50;5028712;28;20207;-65
2022/06/22 10:50:57;;;;;;;13.77;10.73;;;;;;;29.56;53.00;94650.94;5028984;28;20626;-64
2022/06/22 10:53:48;;;;;;;13.88;8.85;;;;;;;29.60;52.31;94654.03;5028781;28;20312;-63
2022/06/22 10:56:30;;;;;;;11.40;9.95;;;;;;;29.51;52.62;94658.53;5028708;28;20763;-64
2022/06/22 10:59:16;;;;;;;15.00;10.38;;;;;;;29.59;53.06;94639.31;5029059;28;20629;-66
2022/06/22 11:02:02;;;;;;;15.25;10.35;;;;;;;29.71;52.78;94643.13;5028911;28;20214;-66
2022/06/22 11:05:02;;;;;;;15.90;11.30;;;;;;;29.77;52.34;94635.38;5029118;28;21465;-65
2022/06/22 11:08:07;;;;;;;12.90;11.40;;;;;;;29.69;53.09;94637.28;5028498;28;20207;-65
2022/06/22 11:10:53;;;;;;;17.10;12.45;;;;;;;29.79;52.74;94633.38;4987379;28;20657;-64
2022/06/22 11:13:47;;;;;;;17.98;12.60;;;;;;;29.76;52.06;94641.59;5028804;28;20203;-67
2022/06/22 11:16:31;;;;;;;19.23;11.88;;;;;;;29.55;51.64;94641.47;5028611;28;20207;-65
2022/06/22 11:19:15;;;;;;;19.85;13.63;;;;;;;29.27;51.35;94654.25;5028427;28;20680;-66
2022/06/22 11:21:58;;;;;;;18.25;12.90;;;;;;;29.23;52.49;94657.41;5028287;28;20224;-66
2022/06/22 11:24:49;;;;;;;24.95;13.40;;;;;;;28.97;52.59;94653.31;5028605;28;20227;-65
2022/06/22 11:33:19;;;;;;;26.45;13.23;;;;;;;28.44;54.30;94649.69;5028299;28;20206;-65
2022/06/22 11:35:57;;;;;;;16.38;13.10;;;;;;;28.38;54.59;94642.50;5027871;28;20518;-65
2022/06/22 11:39:02;;;;;;;16.63;11.88;;;;;;;28.32;54.02;94651.03;5028338;28;20207;-66
2022/06/22 11:41:45;;;;;;;14.63;11.65;;;;;;;28.33;54.19;94647.44;5004843;28;21799;-65
2022/06/22 11:48:01;;;;;;;13.85;11.48;;;;;;;28.68;53.90;94643.53;5028300;28;20280;-66
2022/06/22 11:50:38;;;;;;;12.55;11.35;;;;;;;28.92;52.94;94633.94;5028259;28;20586;-67
2022/06/22 11:53:17;;;;;;;14.32;11.90;;;;;;;29.19;52.91;94633.41;5027404;28;20213;-68
2022/06/22 11:55:49;;;;;;;18.75;11.45;;;;;;;29.14;52.62;94640.16;5026921;28;20297;-68
2022/06/22 11:58:44;;;;;;;17.00;12.35;;;;;;;29.00;52.63;94639.91;5026755;28;20203;-66
2022/06/22 12:01:43;;;;;;;14.48;11.95;;;;;;;28.95;53.63;94641.44;5026753;28;20211;-64
2022/06/22 12:04:34;;;;;;;17.08;12.07;;;;;;;28.73;53.05;94640.38;5025658;28;20315;-67
2022/06/22 12:07:32;;;;;;;13.35;11.20;;;;;;;28.69;53.56;94639.09;5025497;28;20616;-65
2022/06/22 12:10:13;;;;;;;12.90;11.13;;;;;;;28.72;54.66;94636.13;5026020;28;20883;-66
2022/06/22 12:12:56;;;;;;;13.48;10.93;;;;;;;28.83;54.35;94630.53;5026474;28;20272;-66
2022/06/22 12:15:43;;;;;;;11.82;10.90;;;;;;;28.86;54.09;94632.81;5027112;28;20680;-66
2022/06/22 12:18:32;;;;;;;14.13;11.70;;;;;;;29.17;54.21;94637.19;5025292;28;21137;-66
2022/06/22 12:21:19;;;;;;;13.45;11.27;;;;;;;29.06;53.93;94630.56;5026820;28;20203;-65
2022/06/22 12:23:54;;;;;;;19.88;11.10;;;;;;;28.94;53.64;94642.41;5025728;28;20210;-66
2022/06/22 12:26:40;;;;;;;14.13;10.02;;;;;;;28.96;53.92;94645.66;5026083;28;20206;-65
2022/06/22 12:29:27;;;;;;;14.45;11.43;;;;;;;29.08;54.33;94639.84;5026545;28;20217;-64